Wetterdaten: Woche 28.01.13 - 03.02.13 (KW5)
Datum Zeit Temp. Aussen +5cm Feuchte Auss BlattFeu 1 Luftdruck Regen Sonnenschein UV Solar Windben
28.01.2013 00:00 3,4 C 1,8 C 95 % 0 lf 1005,4 hPa 0,0 l/m 0,00 h 0,0 UV-I 0 W/m 3,8 km/h (1 Bft)
28.01.2013 01:00 3,3 C 1,5 C 95 % 0 lf 1006,0 hPa 0,0 l/m 0,00 h 0,0 UV-I 0 W/m 4,8 km/h (1 Bft)
28.01.2013 02:00 3,3 C 1,8 C 94 % 0 lf 1006,5 hPa 0,0 l/m 0,00 h 0,0 UV-I 0 W/m 5,0 km/h (1 Bft)
28.01.2013 03:00 3,2 C 1,6 C 94 % 0 lf 1006,9 hPa 0,0 l/m 0,00 h 0,0 UV-I 0 W/m 4,9 km/h (1 Bft)
28.01.2013 04:00 3,2 C 1,4 C 94 % 0 lf 1007,6 hPa 0,0 l/m 0,00 h 0,0 UV-I 0 W/m 6,2 km/h (2 Bft)
28.01.2013 05:00 3,1 C 1,5 C 94 % 0 lf 1008,5 hPa 0,0 l/m 0,00 h 0,0 UV-I 0 W/m 6,7 km/h (2 Bft)
28.01.2013 06:00 3,0 C 1,2 C 94 % 0 lf 1008,8 hPa 0,0 l/m 0,00 h 0,0 UV-I 0 W/m 6,3 km/h (2 Bft)
28.01.2013 07:00 3,0 C 1,4 C 94 % 0 lf 1009,3 hPa 0,0 l/m 0,00 h 0,0 UV-I 0 W/m 9,3 km/h (2 Bft)
28.01.2013 08:00 3,1 C 1,7 C 94 % 0 lf 1010,2 hPa 0,0 l/m 0,00 h 0,0 UV-I 17 W/m 7,2 km/h (2 Bft)
28.01.2013 09:00 3,3 C 2,2 C 94 % 0 lf 1011,0 hPa 0,0 l/m 0,00 h 0,0 UV-I 44 W/m 5,6 km/h (1 Bft)
28.01.2013 10:00 4,2 C 3,6 C 92 % 0 lf 1011,7 hPa 0,0 l/m 0,00 h 0,0 UV-I 86 W/m 9,0 km/h (2 Bft)
28.01.2013 11:00 4,8 C 3,8 C 90 % 5 lf 1012,5 hPa 0,0 l/m 0,00 h 0,0 UV-I 87 W/m 9,4 km/h (2 Bft)
28.01.2013 12:00 5,1 C 4,2 C 91 % 1 lf 1012,7 hPa 0,0 l/m 0,07 h 0,0 UV-I 127 W/m 10,3 km/h (2 Bft)
28.01.2013 13:00 5,6 C 4,8 C 89 % 0 lf 1013,0 hPa 0,0 l/m 0,00 h 0,0 UV-I 90 W/m 10,9 km/h (2 Bft)
28.01.2013 14:00 5,8 C 4,9 C 89 % 0 lf 1013,1 hPa 0,0 l/m 0,30 h 0,0 UV-I 137 W/m 11,6 km/h (2 Bft)
28.01.2013 15:00 6,0 C 4,9 C 86 % 0 lf 1013,3 hPa 0,0 l/m 0,13 h 0,0 UV-I 89 W/m 14,8 km/h (3 Bft)
28.01.2013 16:00 5,5 C 3,8 C 86 % 0 lf 1013,3 hPa 0,0 l/m 0,00 h 0,0 UV-I 22 W/m 9,9 km/h (2 Bft)
28.01.2013 17:00 4,7 C 3,0 C 88 % 0 lf 1013,3 hPa 0,0 l/m 0,00 h 0,0 UV-I 6 W/m 11,8 km/h (2 Bft)
28.01.2013 18:00 4,5 C 2,9 C 88 % 0 lf 1012,9 hPa 0,0 l/m 0,00 h 0,0 UV-I 0 W/m 12,9 km/h (3 Bft)
28.01.2013 19:00 4,4 C 2,9 C 87 % 0 lf 1011,7 hPa 0,0 l/m 0,00 h 0,0 UV-I 0 W/m 16,2 km/h (3 Bft)
28.01.2013 20:00 4,6 C 3,3 C 85 % 0 lf 1010,9 hPa 0,0 l/m 0,00 h 0,0 UV-I 0 W/m 16,2 km/h (3 Bft)
28.01.2013 21:00 5,1 C 3,6 C 83 % 4 lf 1010,1 hPa 0,0 l/m 0,00 h 0,0 UV-I 0 W/m 20,5 km/h (4 Bft)
28.01.2013 22:00 5,9 C 4,3 C 87 % 11 lf 1008,6 hPa 0,2 l/m 0,00 h 0,0 UV-I 0 W/m 19,1 km/h (3 Bft)
28.01.2013 23:00 6,9 C 5,0 C 88 % 10 lf 1007,3 hPa 0,0 l/m 0,00 h 0,0 UV-I 0 W/m 24,5 km/h (4 Bft)
29.01.2013 00:00 7,1 C 5,5 C 90 % 13 lf 1006,6 hPa 0,2 l/m 0,00 h 0,0 UV-I 0 W/m 27,5 km/h (4 Bft)
29.01.2013 01:00 7,9 C 6,4 C 89 % 0 lf 1006,4 hPa 0,0 l/m 0,00 h 0,0 UV-I 0 W/m 30,5 km/h (5 Bft)
29.01.2013 02:00 8,2 C 6,5 C 90 % 7 lf 1006,7 hPa 0,0 l/m 0,00 h 0,0 UV-I 0 W/m 29,4 km/h (5 Bft)
29.01.2013 03:00 8,1 C 6,5 C 96 % 15 lf 1006,4 hPa 0,2 l/m 0,00 h 0,0 UV-I 0 W/m 31,1 km/h (5 Bft)
29.01.2013 04:00 8,9 C 7,6 C 93 % 2 lf 1006,1 hPa 0,0 l/m 0,00 h 0,0 UV-I 0 W/m 29,2 km/h (5 Bft)
29.01.2013 05:00 9,3 C 7,9 C 91 % 1 lf 1006,0 hPa 0,0 l/m 0,00 h 0,0 UV-I 0 W/m 35,8 km/h (5 Bft)
29.01.2013 06:00 8,9 C 6,8 C 95 % 15 lf 1006,8 hPa 0,4 l/m 0,00 h 0,0 UV-I 0 W/m 20,6 km/h (4 Bft)
29.01.2013 07:00 8,6 C 6,8 C 97 % 14 lf 1006,7 hPa 1,2 l/m 0,00 h 0,0 UV-I 0 W/m 19,6 km/h (3 Bft)
29.01.2013 08:00 8,6 C 7,0 C 98 % 13 lf 1006,9 hPa 1,6 l/m 0,00 h 0,0 UV-I 13 W/m 10,4 km/h (2 Bft)
29.01.2013 09:00 8,9 C 7,5 C 99 % 13 lf 1006,7 hPa 1,4 l/m 0,00 h 0,0 UV-I 19 W/m 13,5 km/h (3 Bft)
29.01.2013 10:00 9,4 C 8,1 C 100 % 14 lf 1006,9 hPa 0,6 l/m 0,00 h 0,0 UV-I 33 W/m 14,8 km/h (3 Bft)
29.01.2013 11:00 9,8 C 8,4 C 100 % 15 lf 1007,2 hPa 0,4 l/m 0,00 h 0,0 UV-I 50 W/m 18,5 km/h (3 Bft)
29.01.2013 12:00 10,1 C 8,9 C 100 % 15 lf 1007,2 hPa 0,4 l/m 0,00 h 0,0 UV-I 58 W/m 15,7 km/h (3 Bft)
29.01.2013 13:00 10,3 C 9,0 C 100 % 15 lf 1007,2 hPa 0,2 l/m 0,00 h 0,0 UV-I 60 W/m 19,0 km/h (3 Bft)
29.01.2013 14:00 10,5 C 9,0 C 99 % 15 lf 1007,3 hPa 0,2 l/m 0,00 h 0,0 UV-I 35 W/m 16,4 km/h (3 Bft)
29.01.2013 15:00 10,7 C 9,0 C 99 % 15 lf 1007,2 hPa 0,4 l/m 0,00 h 0,0 UV-I 26 W/m 17,5 km/h (3 Bft)
29.01.2013 16:00 10,7 C 9,0 C 99 % 15 lf 1007,2 hPa 0,0 l/m 0,00 h 0,0 UV-I 15 W/m 20,3 km/h (4 Bft)
29.01.2013 17:00 10,9 C 9,1 C 99 % 13 lf 1007,4 hPa 0,0 l/m 0,00 h 0,0 UV-I 0 W/m 22,0 km/h (4 Bft)
29.01.2013 18:00 11,0 C 9,0 C 98 % 15 lf 1007,4 hPa 0,2 l/m 0,00 h 0,0 UV-I 0 W/m 20,5 km/h (4 Bft)
29.01.2013 19:00 11,3 C 9,6 C 97 % 4 lf 1007,7 hPa 0,0 l/m 0,00 h 0,0 UV-I 0 W/m 24,5 km/h (4 Bft)
29.01.2013 20:00 11,7 C 10,2 C 96 % 0 lf 1007,6 hPa 0,0 l/m 0,00 h 0,0 UV-I 0 W/m 21,4 km/h (4 Bft)
29.01.2013 21:00 12,1 C 10,7 C 94 % 0 lf 1007,4 hPa 0,0 l/m 0,00 h 0,0 UV-I 0 W/m 25,0 km/h (4 Bft)
29.01.2013 22:00 12,1 C 10,7 C 94 % 0 lf 1007,5 hPa 0,0 l/m 0,00 h 0,0 UV-I 0 W/m 20,2 km/h (4 Bft)
29.01.2013 23:00 12,3 C 10,9 C 94 % 2 lf 1007,4 hPa 0,0 l/m 0,00 h 0,0 UV-I 0 W/m 24,6 km/h (4 Bft)
30.01.2013 00:00 12,0 C 10,2 C 97 % 15 lf 1007,6 hPa 0,2 l/m 0,00 h 0,0 UV-I 0 W/m 20,1 km/h (4 Bft)
30.01.2013 01:00 11,9 C 10,1 C 97 % 11 lf 1007,2 hPa 0,0 l/m 0,00 h 0,0 UV-I 0 W/m 20,0 km/h (4 Bft)
30.01.2013 02:00 12,3 C 10,9 C 92 % 0 lf 1006,8 hPa 0,0 l/m 0,00 h 0,0 UV-I 0 W/m 19,7 km/h (3 Bft)
30.01.2013 03:00 12,4 C 10,9 C 90 % 0 lf 1006,2 hPa 0,0 l/m 0,00 h 0,0 UV-I 0 W/m 21,6 km/h (4 Bft)
30.01.2013 04:00 12,7 C 11,3 C 89 % 0 lf 1005,7 hPa 0,0 l/m 0,00 h 0,0 UV-I 0 W/m 27,9 km/h (4 Bft)
30.01.2013 05:00 13,1 C 11,8 C 89 % 0 lf 1005,5 hPa 0,0 l/m 0,00 h 0,0 UV-I 0 W/m 27,4 km/h (4 Bft)
30.01.2013 06:00 13,2 C 11,3 C 89 % 8 lf 1004,8 hPa 0,2 l/m 0,00 h 0,0 UV-I 0 W/m 26,0 km/h (4 Bft)
30.01.2013 07:00 12,9 C 11,4 C 91 % 4 lf 1004,0 hPa 0,0 l/m 0,00 h 0,0 UV-I 0 W/m 25,9 km/h (4 Bft)
30.01.2013 08:00 13,3 C 11,8 C 89 % 1 lf 1003,5 hPa 0,0 l/m 0,00 h 0,0 UV-I 7 W/m 32,3 km/h (5 Bft)
30.01.2013 09:00 13,3 C 11,8 C 91 % 2 lf 1003,0 hPa 0,0 l/m 0,00 h 0,0 UV-I 29 W/m 31,7 km/h (5 Bft)
30.01.2013 10:00 12,9 C 10,9 C 95 % 14 lf 1003,1 hPa 1,0 l/m 0,00 h 0,0 UV-I 31 W/m 29,7 km/h (5 Bft)
30.01.2013 11:00 12,6 C 10,7 C 97 % 14 lf 1003,6 hPa 1,8 l/m 0,00 h 0,0 UV-I 40 W/m 29,5 km/h (5 Bft)
30.01.2013 12:00 11,4 C 9,8 C 97 % 14 lf 1004,4 hPa 0,6 l/m 0,00 h 0,0 UV-I 58 W/m 15,1 km/h (3 Bft)
30.01.2013 13:00 11,3 C 10,0 C 97 % 10 lf 1004,8 hPa 0,0 l/m 0,00 h 0,0 UV-I 86 W/m 15,6 km/h (3 Bft)
30.01.2013 14:00 11,3 C 9,4 C 92 % 1 lf 1005,3 hPa 0,0 l/m 0,13 h 0,0 UV-I 97 W/m 17,9 km/h (3 Bft)
30.01.2013 15:00 11,7 C 10,2 C 86 % 0 lf 1006,0 hPa 0,0 l/m 0,57 h 0,0 UV-I 126 W/m 21,5 km/h (4 Bft)
30.01.2013 16:00 11,1 C 8,9 C 83 % 6 lf 1006,8 hPa 0,4 l/m 0,00 h 0,0 UV-I 19 W/m 20,5 km/h (4 Bft)
30.01.2013 17:00 9,9 C 7,6 C 86 % 6 lf 1007,5 hPa 0,0 l/m 0,07 h 0,0 UV-I 10 W/m 17,9 km/h (3 Bft)
30.01.2013 18:00 9,8 C 8,0 C 81 % 0 lf 1008,5 hPa 0,0 l/m 0,00 h 0,0 UV-I 0 W/m 18,6 km/h (3 Bft)
30.01.2013 19:00 9,5 C 7,6 C 80 % 0 lf 1009,4 hPa 0,0 l/m 0,00 h 0,0 UV-I 0 W/m 22,8 km/h (4 Bft)
30.01.2013 20:00 8,9 C 7,2 C 81 % 0 lf 1010,3 hPa 0,0 l/m 0,00 h 0,0 UV-I 0 W/m 21,7 km/h (4 Bft)
30.01.2013 21:00 8,5 C 6,8 C 83 % 0 lf 1011,5 hPa 0,0 l/m 0,00 h 0,0 UV-I 0 W/m 24,4 km/h (4 Bft)
30.01.2013 22:00 8,4 C 6,8 C 82 % 0 lf 1012,2 hPa 0,0 l/m 0,00 h 0,0 UV-I 0 W/m 27,2 km/h (4 Bft)
30.01.2013 23:00 8,5 C 7,0 C 82 % 0 lf 1013,1 hPa 0,0 l/m 0,00 h 0,0 UV-I 0 W/m 21,3 km/h (4 Bft)
31.01.2013 00:00 8,4 C 6,8 C 81 % 0 lf 1014,2 hPa 0,0 l/m 0,00 h 0,0 UV-I 0 W/m 20,8 km/h (4 Bft)
31.01.2013 01:00 8,4 C 6,8 C 81 % 0 lf 1015,0 hPa 0,0 l/m 0,00 h 0,0 UV-I 0 W/m 23,8 km/h (4 Bft)
31.01.2013 02:00 8,0 C 6,3 C 80 % 0 lf 1015,5 hPa 0,0 l/m 0,00 h 0,0 UV-I 0 W/m 23,7 km/h (4 Bft)
31.01.2013 03:00 7,4 C 5,8 C 82 % 0 lf 1015,5 hPa 0,0 l/m 0,00 h 0,0 UV-I 0 W/m 23,8 km/h (4 Bft)
31.01.2013 04:00 7,1 C 5,7 C 86 % 0 lf 1015,6 hPa 0,0 l/m 0,00 h 0,0 UV-I 0 W/m 23,5 km/h (4 Bft)
31.01.2013 05:00 7,2 C 5,7 C 86 % 0 lf 1015,7 hPa 0,0 l/m 0,00 h 0,0 UV-I 0 W/m 25,1 km/h (4 Bft)
31.01.2013 06:00 7,2 C 5,8 C 86 % 0 lf 1015,2 hPa 0,0 l/m 0,00 h 0,0 UV-I 0 W/m 22,0 km/h (4 Bft)
31.01.2013 07:00 7,1 C 5,7 C 88 % 0 lf 1014,9 hPa 0,0 l/m 0,00 h 0,0 UV-I 0 W/m 17,6 km/h (3 Bft)
31.01.2013 08:00 7,1 C 5,8 C 87 % 0 lf 1014,4 hPa 0,0 l/m 0,00 h 0,0 UV-I 12 W/m 21,3 km/h (4 Bft)
31.01.2013 09:00 7,3 C 6,2 C 85 % 0 lf 1013,2 hPa 0,0 l/m 0,00 h 0,0 UV-I 33 W/m 25,0 km/h (4 Bft)
31.01.2013 10:00 7,6 C 6,5 C 81 % 0 lf 1012,1 hPa 0,0 l/m 0,00 h 0,0 UV-I 69 W/m 24,4 km/h (4 Bft)
31.01.2013 11:00 8,1 C 6,9 C 75 % 2 lf 1011,3 hPa 0,0 l/m 0,00 h 0,0 UV-I 74 W/m 26,5 km/h (4 Bft)
31.01.2013 12:00 7,1 C 4,7 C 87 % 15 lf 1011,0 hPa 1,4 l/m 0,00 h 0,0 UV-I 39 W/m 31,2 km/h (5 Bft)
31.01.2013 13:00 6,5 C 4,8 C 92 % 11 lf 1010,1 hPa 0,2 l/m 0,00 h 0,0 UV-I 68 W/m 32,7 km/h (5 Bft)
31.01.2013 14:00 7,7 C 6,3 C 89 % 0 lf 1009,6 hPa 0,0 l/m 0,13 h 0,0 UV-I 108 W/m 30,6 km/h (5 Bft)
31.01.2013 15:00 8,4 C 6,7 C 89 % 6 lf 1008,9 hPa 1,2 l/m 0,17 h 0,0 UV-I 69 W/m 24,0 km/h (4 Bft)
31.01.2013 16:00 7,6 C 5,6 C 93 % 14 lf 1008,8 hPa 0,4 l/m 0,00 h 0,0 UV-I 14 W/m 20,4 km/h (4 Bft)
31.01.2013 17:00 7,7 C 5,2 C 91 % 4 lf 1009,3 hPa 0,0 l/m 0,00 h 0,0 UV-I 5 W/m 17,3 km/h (3 Bft)
31.01.2013 18:00 7,7 C 5,4 C 87 % 0 lf 1010,1 hPa 0,0 l/m 0,00 h 0,0 UV-I 0 W/m 13,0 km/h (3 Bft)
31.01.2013 19:00 7,8 C 6,1 C 83 % 0 lf 1010,9 hPa 0,0 l/m 0,00 h 0,0 UV-I 0 W/m 11,8 km/h (2 Bft)
31.01.2013 20:00 8,1 C 6,5 C 82 % 0 lf 1011,4 hPa 0,0 l/m 0,00 h 0,0 UV-I 0 W/m 14,5 km/h (3 Bft)
31.01.2013 21:00 7,9 C 6,4 C 84 % 0 lf 1011,6 hPa 0,0 l/m 0,00 h 0,0 UV-I 0 W/m 18,7 km/h (3 Bft)
31.01.2013 22:00 7,6 C 6,2 C 84 % 0 lf 1011,8 hPa 0,0 l/m 0,00 h 0,0 UV-I 0 W/m 19,6 km/h (3 Bft)
31.01.2013 23:00 7,7 C 6,2 C 84 % 0 lf 1011,8 hPa 0,0 l/m 0,00 h 0,0 UV-I 0 W/m 21,6 km/h (4 Bft)
01.02.2013 00:00 7,3 C 5,7 C 86 % 0 lf 1011,9 hPa 0,0 l/m 0,00 h 0,0 UV-I 0 W/m 16,2 km/h (3 Bft)
01.02.2013 01:00 7,1 C 5,7 C 87 % 0 lf 1011,4 hPa 0,0 l/m 0,00 h 0,0 UV-I 0 W/m 17,3 km/h (3 Bft)
01.02.2013 02:00 7,3 C 5,8 C 87 % 0 lf 1010,9 hPa 0,0 l/m 0,00 h 0,0 UV-I 0 W/m 15,6 km/h (3 Bft)
01.02.2013 03:00 7,3 C 5,8 C 88 % 0 lf 1010,4 hPa 0,0 l/m 0,00 h 0,0 UV-I 0 W/m 12,0 km/h (2 Bft)
01.02.2013 04:00 7,2 C 5,8 C 90 % 2 lf 1009,6 hPa 0,0 l/m 0,00 h 0,0 UV-I 0 W/m 13,0 km/h (3 Bft)
01.02.2013 05:00 7,2 C 5,9 C 90 % 1 lf 1008,8 hPa 0,0 l/m 0,00 h 0,0 UV-I 0 W/m 11,5 km/h (2 Bft)
01.02.2013 06:00 7,3 C 6,2 C 90 % 0 lf 1007,8 hPa 0,0 l/m 0,00 h 0,0 UV-I 0 W/m 15,4 km/h (3 Bft)
01.02.2013 07:00 7,2 C 5,8 C 90 % 0 lf 1006,6 hPa 0,0 l/m 0,00 h 0,0 UV-I 0 W/m 11,5 km/h (2 Bft)
01.02.2013 08:00 7,2 C 5,7 C 91 % 0 lf 1005,4 hPa 0,0 l/m 0,00 h 0,0 UV-I 8 W/m 10,0 km/h (2 Bft)
01.02.2013 09:00 7,2 C 5,9 C 88 % 5 lf 1004,7 hPa 0,0 l/m 0,00 h 0,0 UV-I 18 W/m 12,4 km/h (3 Bft)
01.02.2013 10:00 6,6 C 4,7 C 88 % 13 lf 1004,1 hPa 0,2 l/m 0,00 h 0,0 UV-I 39 W/m 12,0 km/h (2 Bft)
01.02.2013 11:00 6,0 C 4,4 C 92 % 15 lf 1002,7 hPa 0,0 l/m 0,00 h 0,0 UV-I 65 W/m 10,3 km/h (2 Bft)
01.02.2013 12:00 5,5 C 4,0 C 93 % 15 lf 1001,2 hPa 0,4 l/m 0,00 h 0,0 UV-I 47 W/m 7,5 km/h (2 Bft)
01.02.2013 13:00 5,2 C 4,0 C 95 % 12 lf 999,5 hPa 1,0 l/m 0,00 h 0,0 UV-I 37 W/m 8,7 km/h (2 Bft)
01.02.2013 14:00 5,1 C 4,0 C 97 % 12 lf 997,5 hPa 0,8 l/m 0,00 h 0,0 UV-I 36 W/m 4,7 km/h (1 Bft)
01.02.2013 15:00 5,2 C 4,2 C 98 % 10 lf 995,6 hPa 1,2 l/m 0,00 h 0,0 UV-I 27 W/m 8,2 km/h (2 Bft)
01.02.2013 16:00 5,3 C 4,5 C 99 % 11 lf 994,3 hPa 0,8 l/m 0,00 h 0,0 UV-I 13 W/m 4,2 km/h (1 Bft)
01.02.2013 17:00 5,5 C 4,6 C 99 % 12 lf 992,6 hPa 0,6 l/m 0,00 h 0,0 UV-I 5 W/m 3,2 km/h (1 Bft)
01.02.2013 18:00 5,8 C 4,9 C 100 % 11 lf 991,9 hPa 2,2 l/m 0,00 h 0,0 UV-I 0 W/m 3,5 km/h (1 Bft)
01.02.2013 19:00 5,7 C 4,4 C 100 % 14 lf 991,8 hPa 0,8 l/m 0,00 h 0,0 UV-I 0 W/m 16,9 km/h (3 Bft)
01.02.2013 20:00 4,2 C 3,0 C 99 % 14 lf 992,6 hPa 0,0 l/m 0,00 h 0,0 UV-I 0 W/m 18,8 km/h (3 Bft)
01.02.2013 21:00 3,8 C 2,6 C 99 % 13 lf 993,5 hPa 0,0 l/m 0,00 h 0,0 UV-I 0 W/m 14,4 km/h (3 Bft)
01.02.2013 22:00 3,3 C 2,2 C 98 % 11 lf 994,5 hPa 0,0 l/m 0,00 h 0,0 UV-I 0 W/m 11,8 km/h (2 Bft)
01.02.2013 23:00 3,2 C 1,9 C 98 % 12 lf 995,1 hPa 0,0 l/m 0,00 h 0,0 UV-I 0 W/m 6,1 km/h (2 Bft)
02.02.2013 00:00 3,1 C 1,8 C 98 % 14 lf 995,5 hPa 0,0 l/m 0,00 h 0,0 UV-I 0 W/m 1,6 km/h (1 Bft)
02.02.2013 01:00 3,0 C 1,8 C 98 % 13 lf 996,0 hPa 0,0 l/m 0,00 h 0,0 UV-I 0 W/m 4,4 km/h (1 Bft)
02.02.2013 02:00 3,2 C 2,0 C 99 % 8 lf 996,1 hPa 0,0 l/m 0,00 h 0,0 UV-I 0 W/m 4,8 km/h (1 Bft)
02.02.2013 03:00 3,3 C 2,2 C 99 % 3 lf 996,7 hPa 0,0 l/m 0,00 h 0,0 UV-I 0 W/m 7,6 km/h (2 Bft)
02.02.2013 04:00 3,4 C 2,3 C 99 % 3 lf 997,3 hPa 0,0 l/m 0,00 h 0,0 UV-I 0 W/m 5,0 km/h (1 Bft)
02.02.2013 05:00 3,3 C 2,2 C 98 % 0 lf 997,8 hPa 0,0 l/m 0,00 h 0,0 UV-I 0 W/m 2,6 km/h (1 Bft)
02.02.2013 06:00 3,3 C 2,3 C 98 % 6 lf 998,3 hPa 0,2 l/m 0,00 h 0,0 UV-I 0 W/m 4,6 km/h (1 Bft)
02.02.2013 07:00 3,1 C 1,8 C 98 % 15 lf 999,1 hPa 0,0 l/m 0,00 h 0,0 UV-I 0 W/m 4,3 km/h (1 Bft)
02.02.2013 08:00 3,1 C 1,8 C 98 % 15 lf 1000,2 hPa 0,8 l/m 0,00 h 0,0 UV-I 6 W/m 3,6 km/h (1 Bft)
02.02.2013 09:00 3,3 C 2,4 C 99 % 15 lf 1001,2 hPa 0,4 l/m 0,00 h 0,0 UV-I 22 W/m 5,1 km/h (1 Bft)
02.02.2013 10:00 2,4 C 1,0 C 97 % 14 lf 1003,4 hPa 0,4 l/m 0,00 h 0,0 UV-I 36 W/m 37,5 km/h (5 Bft)
02.02.2013 11:00 1,7 C 0,5 C 95 % 4 lf 1005,3 hPa 0,0 l/m 0,00 h 0,0 UV-I 65 W/m 21,4 km/h (4 Bft)
02.02.2013 12:00 2,6 C 1,7 C 96 % 1 lf 1006,4 hPa 0,0 l/m 0,00 h 0,0 UV-I 94 W/m 16,1 km/h (3 Bft)
02.02.2013 13:00 3,7 C 2,7 C 92 % 0 lf 1007,5 hPa 0,0 l/m 0,37 h 0,0 UV-I 213 W/m 21,8 km/h (4 Bft)
02.02.2013 14:00 4,6 C 3,5 C 79 % 0 lf 1008,5 hPa 0,0 l/m 0,43 h 0,0 UV-I 192 W/m 22,0 km/h (4 Bft)
02.02.2013 15:00 4,4 C 3,1 C 75 % 0 lf 1009,2 hPa 0,0 l/m 0,23 h 0,0 UV-I 85 W/m 20,6 km/h (4 Bft)
02.02.2013 16:00 4,2 C 2,9 C 74 % 0 lf 1010,1 hPa 0,0 l/m 0,07 h 0,0 UV-I 35 W/m 13,9 km/h (3 Bft)
02.02.2013 17:00 3,9 C 2,0 C 78 % 0 lf 1011,0 hPa 0,0 l/m 0,00 h 0,0 UV-I 9 W/m 6,0 km/h (2 Bft)
02.02.2013 18:00 2,8 C 0,9 C 88 % 3 lf 1012,5 hPa 0,2 l/m 0,00 h 0,0 UV-I 0 W/m 12,2 km/h (3 Bft)
02.02.2013 19:00 1,9 C 0,0 C 91 % 0 lf 1013,2 hPa 0,0 l/m 0,00 h 0,0 UV-I 0 W/m 1,5 km/h (1 Bft)
02.02.2013 20:00 1,9 C 1,0 C 93 % 0 lf 1013,8 hPa 0,0 l/m 0,00 h 0,0 UV-I 0 W/m 5,6 km/h (1 Bft)
02.02.2013 21:00 2,6 C 1,7 C 91 % 1 lf 1014,2 hPa 0,0 l/m 0,00 h 0,0 UV-I 0 W/m 8,3 km/h (2 Bft)
02.02.2013 22:00 2,8 C 1,7 C 91 % 6 lf 1014,5 hPa 0,0 l/m 0,00 h 0,0 UV-I 0 W/m 9,4 km/h (2 Bft)
02.02.2013 23:00 3,1 C 1,7 C 92 % 8 lf 1015,0 hPa 0,0 l/m 0,00 h 0,0 UV-I 0 W/m 6,0 km/h (2 Bft)
03.02.2013 00:00 3,2 C 1,9 C 93 % 9 lf 1015,7 hPa 0,0 l/m 0,00 h 0,0 UV-I 0 W/m 7,0 km/h (2 Bft)
03.02.2013 01:00 3,3 C 2,2 C 93 % 0 lf 1016,6 hPa 0,0 l/m 0,00 h 0,0 UV-I 0 W/m 9,0 km/h (2 Bft)
03.02.2013 02:00 3,2 C 2,3 C 94 % 0 lf 1017,3 hPa 0,0 l/m 0,00 h 0,0 UV-I 0 W/m 9,2 km/h (2 Bft)
03.02.2013 03:00 2,9 C 1,4 C 94 % 0 lf 1018,0 hPa 0,0 l/m 0,00 h 0,0 UV-I 0 W/m 4,3 km/h (1 Bft)
03.02.2013 04:00 2,8 C 1,8 C 95 % 2 lf 1018,3 hPa 0,0 l/m 0,00 h 0,0 UV-I 0 W/m 4,2 km/h (1 Bft)
03.02.2013 05:00 2,9 C 1,8 C 94 % 0 lf 1018,5 hPa 0,0 l/m 0,00 h 0,0 UV-I 0 W/m 2,2 km/h (1 Bft)
03.02.2013 06:00 2,8 C 1,8 C 94 % 0 lf 1018,8 hPa 0,0 l/m 0,00 h 0,0 UV-I 0 W/m 6,5 km/h (2 Bft)
03.02.2013 07:00 2,4 C 1,2 C 94 % 0 lf 1018,3 hPa 0,0 l/m 0,00 h 0,0 UV-I 5 W/m 4,3 km/h (1 Bft)
03.02.2013 08:00 2,2 C 1,2 C 95 % 0 lf 1018,5 hPa 0,0 l/m 0,00 h 0,0 UV-I 11 W/m 4,1 km/h (1 Bft)
03.02.2013 09:00 2,4 C 1,8 C 96 % 0 lf 1018,6 hPa 0,0 l/m 0,00 h 0,0 UV-I 41 W/m 8,0 km/h (2 Bft)
03.02.2013 10:00 3,0 C 2,4 C 95 % 4 lf 1018,3 hPa 0,2 l/m 0,00 h 0,0 UV-I 56 W/m 10,3 km/h (2 Bft)
03.02.2013 11:00 3,7 C 2,7 C 95 % 11 lf 1017,7 hPa 0,0 l/m 0,03 h 0,0 UV-I 93 W/m 13,4 km/h (3 Bft)
03.02.2013 12:00 4,3 C 3,7 C 89 % 0 lf 1017,6 hPa 0,0 l/m 0,03 h 0,0 UV-I 96 W/m 17,5 km/h (3 Bft)
03.02.2013 13:00 4,7 C 4,0 C 83 % 0 lf 1016,3 hPa 0,0 l/m 0,00 h 0,0 UV-I 138 W/m 19,0 km/h (3 Bft)
03.02.2013 14:00 4,3 C 3,3 C 75 % 0 lf 1015,0 hPa 0,0 l/m 0,00 h 0,0 UV-I 79 W/m 19,9 km/h (4 Bft)
03.02.2013 15:00 3,9 C 2,8 C 78 % 3 lf 1013,9 hPa 0,0 l/m 0,00 h 0,0 UV-I 23 W/m 19,3 km/h (3 Bft)
03.02.2013 16:00 3,4 C 1,8 C 87 % 14 lf 1012,8 hPa 0,0 l/m 0,00 h 0,0 UV-I 12 W/m 22,4 km/h (4 Bft)
03.02.2013 17:00 3,1 C 1,8 C 94 % 15 lf 1012,5 hPa 0,4 l/m 0,00 h 0,0 UV-I 0 W/m 21,7 km/h (4 Bft)
03.02.2013 18:00 3,2 C 1,8 C 96 % 15 lf 1012,0 hPa 0,2 l/m 0,00 h 0,0 UV-I 0 W/m 23,2 km/h (4 Bft)
03.02.2013 19:00 3,5 C 2,3 C 98 % 15 lf 1011,6 hPa 0,4 l/m 0,00 h 0,0 UV-I 0 W/m 23,0 km/h (4 Bft)
03.02.2013 20:00 4,0 C 2,8 C 98 % 15 lf 1011,2 hPa 0,2 l/m 0,00 h 0,0 UV-I 0 W/m 21,5 km/h (4 Bft)
03.02.2013 21:00 4,5 C 3,3 C 99 % 15 lf 1010,8 hPa 0,4 l/m 0,00 h 0,0 UV-I 0 W/m 20,1 km/h (4 Bft)
03.02.2013 22:00 4,8 C 3,4 C 99 % 15 lf 1010,5 hPa 0,2 l/m 0,00 h 0,0 UV-I 0 W/m 20,0 km/h (4 Bft)
03.02.2013 23:00 5,0 C 3,7 C 99 % 15 lf 1010,4 hPa 0,4 l/m 0,00 h 0,0 UV-I 0 W/m 20,2 km/h (4 Bft)
Min-Datum _ 02.02.13 02.02.13 02.02.13 28.01.13 01.02.13 - - - - 28.01.13
_ Min-Zeit 11:14 19:14 15:50 00:00 19:10 - - - - 00:00
Minimum _ 1,6 C -0,4 C 72 % 0 lf 991,4 hPa - - - - 0,0 km/h (0 Bft)
Max-Datum _ 30.01.13 30.01.13 29.01.13 28.01.13 03.02.13 01.02.13 28.01.13 28.01.13 31.01.13 02.02.13
_ Max-Zeit 08:34 08:22 09:54 11:28 06:28 18:02 12:24 00:00 14:00 11:00
Maximum _ 13,6 C 12,3 C 100 % 15 lf 1018,9 hPa 2,2 l/m 0,03 h 0,0 UV-I 411 W/m 61,8 km/h
W-NW (7 Bft)
Durchschnitt _ 6,5 C 5,1 C 91 % 5 lf 1008,3 hPa #27,4 l/m #2:44 h 0,0 UV-I 52 W/m 16,2 km/h (3 Bft)
© 2013 W. Hausmann